createdAt,value
2017-06-15T19:18:36.928Z,25.90
2017-06-15T19:21:04.999Z,24.80
2017-06-15T19:23:32.767Z,24.10
2017-06-15T19:26:01.002Z,23.70
2017-06-15T19:28:29.276Z,23.50
2017-06-15T19:30:57.081Z,23.50
2017-06-15T19:33:24.864Z,23.30
2017-06-15T19:35:52.733Z,23.40
2017-06-15T19:38:20.371Z,23.30
2017-06-15T19:40:48.402Z,23.20
2017-06-15T19:43:16.335Z,23.30
2017-06-15T19:45:44.208Z,23.10
2017-06-15T19:48:12.761Z,22.90
2017-06-15T19:50:41.239Z,23.00
2017-06-15T19:53:09.273Z,23.20
2017-06-15T19:55:38.015Z,23.20
2017-06-15T19:58:05.756Z,23.00
2017-06-15T20:00:33.532Z,23.20
2017-06-15T20:03:01.520Z,23.20
2017-06-15T20:07:44.592Z,23.00
2017-06-15T20:10:11.274Z,22.90
2017-06-15T20:12:38.732Z,23.10
2017-06-15T20:15:41.620Z,23.00
2017-06-15T20:18:08.258Z,23.10
2017-06-15T20:20:35.527Z,22.90
2017-06-15T20:23:02.353Z,22.80
2017-06-15T20:25:35.115Z,22.80
2017-06-15T20:28:01.757Z,22.80
2017-06-15T20:30:28.420Z,23.00
2017-06-15T20:32:55.252Z,22.90
2017-06-15T20:35:22.514Z,23.00
2017-06-15T20:37:49.116Z,23.10
2017-06-15T20:40:15.781Z,23.00
2017-06-15T20:42:44.436Z,22.90
2017-06-15T20:45:11.746Z,22.90
2017-06-15T20:47:39.713Z,23.00
2017-06-15T20:50:06.637Z,23.00
2017-06-15T20:52:34.200Z,23.00
2017-06-15T20:55:01.700Z,22.90
2017-06-15T20:57:29.345Z,22.80
2017-06-15T20:59:56.543Z,22.70
2017-06-15T21:02:23.518Z,22.70
2017-06-15T21:04:51.643Z,22.70
2017-06-15T21:07:19.428Z,22.60
2017-06-15T21:09:49.577Z,22.70
2017-06-15T21:12:16.824Z,22.60
2017-06-15T21:14:45.156Z,22.50
2017-06-15T21:17:13.174Z,22.50
2017-06-15T21:19:40.902Z,22.60
2017-06-15T21:22:07.646Z,22.40
2017-06-15T21:24:35.287Z,22.40
2017-06-15T21:27:02.594Z,22.60
2017-06-15T21:29:29.400Z,22.50
2017-06-15T21:31:56.894Z,22.50
2017-06-15T21:34:24.850Z,22.40
2017-06-15T21:36:53.436Z,22.50
2017-06-15T21:39:21.504Z,22.40
2017-06-15T21:41:49.568Z,22.40
2017-06-15T21:44:18.500Z,22.50
2017-06-15T21:46:46.108Z,22.40
2017-06-15T21:49:13.934Z,22.40
2017-06-15T21:51:41.557Z,22.40
2017-06-15T21:54:09.555Z,22.30
2017-06-15T21:56:39.697Z,22.20
2017-06-15T21:59:07.691Z,22.20
2017-06-15T22:01:34.357Z,22.20
2017-06-15T22:04:02.395Z,22.30
2017-06-15T22:06:30.693Z,22.10
2017-06-15T22:08:59.593Z,22.10
2017-06-15T22:11:28.535Z,22.10
2017-06-15T22:13:56.120Z,22.00
2017-06-15T22:16:24.054Z,22.20
2017-06-15T22:18:51.559Z,22.20
2017-06-15T22:21:19.333Z,22.30
2017-06-15T22:23:46.806Z,22.30
2017-06-15T22:26:13.877Z,22.20
2017-06-15T22:28:41.968Z,22.20
2017-06-15T22:31:10.204Z,22.20
2017-06-15T22:33:37.151Z,22.20
2017-06-15T22:36:06.218Z,22.20
2017-06-15T22:38:34.385Z,22.20
2017-06-15T22:41:01.335Z,22.10
2017-06-15T22:43:28.521Z,22.10
2017-06-15T22:45:55.549Z,22.10
2017-06-15T22:48:22.289Z,22.30
2017-06-15T22:50:48.927Z,22.30
2017-06-15T22:53:16.385Z,22.30
2017-06-15T22:55:43.021Z,22.20
2017-06-15T22:58:09.660Z,22.10
2017-06-15T23:00:36.171Z,22.20
2017-06-15T23:03:14.876Z,22.10
2017-06-15T23:05:42.169Z,22.10
2017-06-15T23:08:08.910Z,22.00
2017-06-15T23:10:36.087Z,22.00
2017-06-15T23:13:03.180Z,22.10
2017-06-15T23:15:29.847Z,22.00
2017-06-15T23:17:56.485Z,22.00
2017-06-15T23:20:23.105Z,22.10
2017-06-15T23:22:49.644Z,22.00
2017-06-15T23:25:16.340Z,22.10
2017-06-15T23:27:43.650Z,22.10
2017-06-15T23:30:10.271Z,22.00
2017-06-15T23:32:37.540Z,22.00
2017-06-15T23:35:04.699Z,21.90
2017-06-15T23:37:31.431Z,21.90
2017-06-15T23:39:58.039Z,21.80
2017-06-15T23:42:25.731Z,21.80
2017-06-15T23:44:52.369Z,21.80
2017-06-15T23:47:18.995Z,21.80
2017-06-15T23:49:45.644Z,21.70
2017-06-15T23:52:12.261Z,21.70
2017-06-15T23:54:38.820Z,21.60
2017-06-15T23:57:05.562Z,21.50
2017-06-15T23:59:32.892Z,21.40
